createdAt,value
2018-04-23T00:01:07.501Z,16.40
2018-04-23T00:03:34.947Z,16.40
2018-04-23T00:06:02.385Z,16.40
2018-04-23T00:08:30.600Z,16.20
2018-04-23T00:10:58.048Z,16.20
2018-04-23T00:13:25.491Z,16.10
2018-04-23T00:15:52.945Z,16.00
2018-04-23T00:18:20.395Z,16.00
2018-04-23T00:20:47.892Z,15.90
2018-04-23T00:23:15.371Z,15.90
2018-04-23T00:25:42.817Z,15.80
2018-04-23T00:28:10.271Z,15.80
2018-04-23T00:30:37.720Z,15.80
2018-04-23T00:33:05.179Z,15.70
2018-04-23T00:35:32.649Z,15.80
2018-04-23T00:38:00.099Z,15.80
2018-04-23T00:40:27.563Z,15.60
2018-04-23T00:42:55.015Z,15.50
2018-04-23T00:45:22.478Z,15.50
2018-04-23T00:47:49.929Z,15.50
2018-04-23T00:50:17.381Z,15.40
2018-04-23T00:52:44.844Z,15.40
2018-04-23T00:55:12.317Z,15.40
2018-04-23T00:57:39.763Z,15.40
2018-04-23T01:00:07.225Z,15.50
2018-04-23T01:02:34.684Z,15.50
2018-04-23T01:05:02.144Z,15.60
2018-04-23T01:07:29.591Z,15.60
2018-04-23T01:09:57.036Z,15.60
2018-04-23T01:12:24.498Z,15.70
2018-04-23T01:14:51.954Z,15.50
2018-04-23T01:17:19.409Z,15.50
2018-04-23T01:19:47.616Z,15.20
2018-04-23T01:22:15.089Z,15.20
2018-04-23T01:24:42.542Z,15.10
2018-04-23T01:27:10.001Z,15.00
2018-04-23T01:29:37.455Z,14.70
2018-04-23T01:32:05.657Z,14.40
2018-04-23T01:34:33.108Z,14.30
2018-04-23T01:37:00.565Z,14.30
2018-04-23T01:39:28.024Z,14.20
2018-04-23T01:41:55.488Z,14.20
2018-04-23T01:44:22.936Z,14.10
2018-04-23T01:46:50.393Z,14.10
2018-04-23T01:49:17.847Z,14.10
2018-04-23T01:51:45.317Z,14.20
2018-04-23T01:54:12.773Z,14.20
2018-04-23T01:56:40.231Z,14.10
2018-04-23T01:59:07.684Z,14.10
2018-04-23T02:01:35.153Z,14.00
2018-04-23T02:04:02.591Z,14.10
2018-04-23T02:06:30.035Z,14.10
2018-04-23T02:08:57.490Z,14.10
2018-04-23T02:11:24.952Z,13.90
2018-04-23T02:13:52.397Z,13.80
2018-04-23T02:16:19.850Z,13.60
2018-04-23T02:18:47.296Z,13.60
2018-04-23T02:21:15.512Z,13.60
2018-04-23T02:23:42.964Z,13.50
2018-04-23T02:26:10.409Z,13.50
2018-04-23T02:28:37.855Z,13.10
2018-04-23T02:31:05.317Z,13.60
2018-04-23T02:33:32.769Z,13.50
2018-04-23T02:36:00.224Z,13.40
2018-04-23T02:38:27.683Z,13.40
2018-04-23T02:40:55.135Z,13.40
2018-04-23T02:43:22.600Z,13.40
2018-04-23T02:45:50.065Z,13.40
2018-04-23T02:48:17.506Z,13.50
2018-04-23T02:50:44.965Z,13.40
2018-04-23T02:53:12.412Z,13.40
2018-04-23T02:55:39.879Z,13.30
2018-04-23T02:58:07.344Z,13.40
2018-04-23T03:00:34.810Z,13.30
2018-04-23T03:03:02.262Z,13.40
2018-04-23T03:05:29.713Z,13.40
2018-04-23T03:07:57.160Z,13.50
2018-04-23T03:10:24.611Z,13.40
2018-04-23T03:12:52.823Z,13.50
2018-04-23T03:15:20.284Z,13.40
2018-04-23T03:17:47.730Z,13.50
2018-04-23T03:20:15.192Z,13.30
2018-04-23T03:22:42.638Z,13.30
2018-04-23T03:25:10.119Z,13.30
2018-04-23T03:27:37.564Z,13.20
2018-04-23T03:30:05.024Z,13.20
2018-04-23T03:32:32.476Z,12.90
2018-04-23T03:34:59.926Z,13.10
2018-04-23T03:37:27.383Z,13.10
2018-04-23T03:39:54.832Z,13.10
2018-04-23T03:42:22.299Z,13.10
2018-04-23T03:44:49.741Z,13.00
2018-04-23T03:47:17.201Z,12.90
2018-04-23T03:49:44.660Z,12.80
2018-04-23T03:52:12.119Z,12.80
2018-04-23T03:54:39.571Z,12.90
2018-04-23T03:57:07.026Z,12.90
2018-04-23T03:59:34.471Z,12.80
2018-04-23T04:02:01.927Z,12.80
2018-04-23T04:04:29.398Z,12.70
2018-04-23T04:06:56.861Z,12.70
2018-04-23T04:09:24.375Z,12.70
2018-04-23T04:11:51.769Z,12.70
2018-04-23T04:20:36.887Z,12.70
2018-04-23T04:23:04.340Z,12.60
2018-04-23T04:25:31.790Z,12.70
2018-04-23T04:27:59.240Z,12.70
2018-04-23T04:30:26.708Z,12.60
2018-04-23T04:32:54.164Z,12.50
2018-04-23T04:35:21.624Z,12.50
2018-04-23T04:37:49.078Z,12.40
2018-04-23T04:40:16.537Z,12.40
2018-04-23T04:42:43.985Z,12.40
2018-04-23T04:45:11.440Z,12.40
2018-04-23T04:47:38.904Z,12.40
2018-04-23T04:50:06.344Z,12.50
2018-04-23T04:52:33.814Z,12.40
2018-04-23T04:55:01.268Z,12.30
2018-04-23T04:57:28.723Z,12.40
2018-04-23T04:59:56.174Z,12.20
2018-04-23T05:02:23.636Z,12.50
2018-04-23T05:04:51.096Z,12.50
2018-04-23T05:07:18.547Z,12.60
2018-04-23T05:09:45.996Z,12.70
2018-04-23T05:12:13.447Z,12.80
2018-04-23T05:14:40.900Z,12.90
2018-04-23T05:17:08.360Z,13.00
2018-04-23T05:19:35.816Z,13.10
2018-04-23T05:22:03.271Z,13.30
2018-04-23T05:24:30.722Z,13.50
2018-04-23T05:26:58.938Z,13.80
2018-04-23T05:29:26.392Z,13.70
2018-04-23T05:31:53.860Z,13.90
2018-04-23T05:34:21.323Z,14.00
2018-04-23T05:36:48.778Z,14.10
2018-04-23T05:39:16.230Z,14.20
2018-04-23T05:41:43.689Z,14.10
2018-04-23T05:44:11.165Z,14.20
2018-04-23T05:46:38.598Z,14.20
2018-04-23T05:49:06.051Z,14.40
2018-04-23T05:51:33.515Z,14.50
2018-04-23T05:54:00.964Z,14.70
2018-04-23T05:56:28.409Z,14.80
2018-04-23T05:58:55.876Z,15.00
2018-04-23T06:01:23.335Z,15.10
2018-04-23T06:03:50.787Z,15.20
2018-04-23T06:06:18.635Z,15.30
2018-04-23T06:08:46.133Z,15.30
2018-04-23T06:11:13.567Z,15.50
2018-04-23T06:13:41.021Z,15.60
2018-04-23T06:16:08.478Z,15.70
2018-04-23T06:18:35.936Z,15.80
2018-04-23T06:21:03.398Z,15.90
2018-04-23T06:23:30.860Z,16.00
2018-04-23T06:25:58.319Z,16.20
2018-04-23T06:28:25.794Z,16.50
2018-04-23T06:30:53.248Z,16.60
2018-04-23T06:33:20.694Z,16.80
2018-04-23T06:35:50.053Z,17.20
2018-04-23T06:38:17.495Z,17.60
2018-04-23T06:40:44.953Z,17.90
2018-04-23T06:43:13.170Z,18.50
2018-04-23T06:45:40.621Z,18.40
2018-04-23T06:48:08.068Z,18.90
2018-04-23T06:50:35.515Z,19.10
2018-04-23T06:53:02.975Z,19.20
2018-04-23T06:55:30.437Z,19.20
2018-04-23T06:57:57.909Z,19.20
2018-04-23T07:00:25.356Z,19.30
2018-04-23T07:02:52.807Z,19.30
2018-04-23T07:05:20.256Z,19.50
2018-04-23T07:07:47.717Z,19.80
2018-04-23T07:10:15.168Z,20.20
2018-04-23T07:12:42.630Z,20.60
2018-04-23T07:15:10.083Z,20.90
2018-04-23T07:17:37.548Z,21.40
2018-04-23T07:20:04.998Z,21.70
2018-04-23T07:22:32.454Z,22.10
2018-04-23T07:24:59.899Z,22.40
2018-04-23T07:27:27.371Z,22.50
2018-04-23T07:29:54.833Z,22.90
2018-04-23T07:32:22.277Z,23.00
2018-04-23T07:34:49.782Z,23.40
2018-04-23T07:37:17.183Z,23.50
2018-04-23T07:39:44.632Z,23.50
2018-04-23T07:42:12.084Z,23.70
2018-04-23T07:44:39.547Z,23.60
2018-04-23T07:47:06.995Z,23.70
2018-04-23T07:49:35.200Z,24.30
2018-04-23T07:52:02.653Z,24.20
2018-04-23T07:54:30.103Z,24.60
2018-04-23T07:56:57.573Z,24.90
2018-04-23T07:59:25.009Z,25.00
2018-04-23T08:01:52.456Z,25.40
2018-04-23T08:04:19.911Z,25.40
2018-04-23T08:06:47.422Z,25.70
2018-04-23T08:09:14.852Z,25.80
2018-04-23T08:11:42.301Z,26.00
2018-04-23T08:14:09.768Z,26.10
2018-04-23T08:16:37.220Z,26.30
2018-04-23T08:19:04.672Z,26.30
2018-04-23T08:21:32.127Z,26.60
2018-04-23T08:23:59.588Z,26.90
2018-04-23T08:26:27.040Z,27.30
2018-04-23T08:28:54.500Z,27.40
2018-04-23T08:31:21.955Z,27.40
2018-04-23T08:33:49.425Z,27.40
2018-04-23T08:36:16.883Z,27.40
2018-04-23T08:38:44.336Z,27.20
2018-04-23T08:41:11.791Z,27.30
2018-04-23T08:43:39.249Z,27.70
2018-04-23T08:46:06.703Z,27.60
2018-04-23T08:48:34.151Z,27.70
2018-04-23T08:51:01.595Z,28.00
2018-04-23T08:53:29.102Z,28.20
2018-04-23T08:55:56.618Z,28.20
2018-04-23T08:58:23.995Z,27.90
2018-04-23T09:00:51.453Z,27.70
2018-04-23T09:03:18.907Z,27.70
2018-04-23T09:05:46.356Z,27.70
2018-04-23T09:08:13.817Z,27.90
2018-04-23T09:10:41.268Z,28.10
2018-04-23T09:13:08.731Z,28.10
2018-04-23T09:15:36.193Z,28.30
2018-04-23T09:18:03.631Z,28.20
2018-04-23T09:20:31.081Z,28.40
2018-04-23T09:22:58.532Z,28.60
2018-04-23T09:25:25.988Z,28.70
2018-04-23T09:27:53.436Z,28.40
2018-04-23T09:30:21.650Z,27.90
2018-04-23T09:32:49.102Z,27.90
2018-04-23T09:35:16.548Z,27.90
2018-04-23T09:37:44.017Z,28.20
2018-04-23T09:40:11.461Z,28.20
2018-04-23T09:42:38.920Z,28.20
2018-04-23T09:45:06.389Z,28.30
2018-04-23T09:47:33.848Z,28.40
2018-04-23T09:50:01.299Z,28.40
2018-04-23T09:52:28.752Z,28.10
2018-04-23T09:54:56.200Z,28.00
2018-04-23T09:57:23.659Z,28.20
2018-04-23T09:59:51.108Z,28.40
2018-04-23T10:02:21.516Z,28.60
2018-04-23T10:04:49.736Z,29.00
2018-04-23T10:07:17.879Z,28.90
2018-04-23T10:09:45.336Z,29.00
2018-04-23T10:12:12.828Z,28.90
2018-04-23T10:14:40.271Z,28.70
2018-04-23T10:17:07.720Z,28.70
2018-04-23T10:19:35.184Z,28.50
2018-04-23T10:22:02.637Z,28.30
2018-04-23T10:24:30.091Z,28.10
2018-04-23T10:26:57.539Z,28.20
2018-04-23T10:29:25.000Z,28.30
2018-04-23T10:31:52.459Z,28.30
2018-04-23T10:34:19.916Z,28.40
2018-04-23T10:36:47.368Z,28.30
2018-04-23T10:39:14.841Z,28.30
2018-04-23T10:41:42.292Z,27.90
2018-04-23T10:44:09.755Z,27.80
2018-04-23T10:46:37.204Z,27.70
2018-04-23T10:49:04.651Z,27.80
2018-04-23T10:51:32.112Z,27.90
2018-04-23T10:53:59.579Z,28.20
2018-04-23T10:56:27.801Z,28.50
2018-04-23T10:58:56.024Z,28.40
2018-04-23T11:01:23.476Z,28.40
2018-04-23T11:03:50.932Z,28.40
2018-04-23T11:06:18.368Z,28.60
2018-04-23T11:08:45.853Z,28.50
2018-04-23T11:11:13.303Z,28.60
2018-04-23T11:13:40.764Z,28.70
2018-04-23T11:16:08.223Z,28.90
2018-04-23T11:18:35.663Z,28.90
2018-04-23T11:21:03.116Z,28.80
2018-04-23T11:23:30.594Z,28.70
2018-04-23T11:25:58.046Z,28.90
2018-04-23T11:28:25.490Z,29.00
2018-04-23T11:30:52.953Z,29.00
2018-04-23T11:33:20.412Z,28.80
2018-04-23T11:35:47.864Z,28.50
2018-04-23T11:38:15.317Z,28.40
2018-04-23T11:40:42.762Z,28.50
2018-04-23T11:43:10.224Z,28.60
2018-04-23T11:45:37.919Z,28.70
2018-04-23T11:48:05.368Z,28.80
2018-04-23T11:50:32.815Z,28.80
2018-04-23T11:53:00.306Z,28.70
2018-04-23T11:55:27.719Z,28.80
2018-04-23T11:57:55.176Z,28.80
2018-04-23T12:00:22.637Z,28.70
2018-04-23T12:02:50.084Z,28.90
2018-04-23T12:05:17.531Z,28.90
2018-04-23T12:07:44.980Z,28.90
2018-04-23T12:10:12.436Z,28.30
2018-04-23T12:12:39.879Z,28.30
2018-04-23T12:15:08.109Z,28.50
2018-04-23T12:17:35.567Z,28.40
2018-04-23T12:20:03.036Z,28.50
2018-04-23T12:22:30.475Z,28.40
2018-04-23T12:24:57.940Z,28.30
2018-04-23T12:27:25.396Z,28.10
2018-04-23T12:29:52.851Z,28.20
2018-04-23T12:32:20.317Z,28.40
2018-04-23T12:34:47.767Z,28.20
2018-04-23T12:37:15.223Z,28.10
2018-04-23T12:39:42.724Z,28.20
2018-04-23T12:42:10.137Z,28.30
2018-04-23T12:44:38.359Z,28.40
2018-04-23T12:47:06.576Z,28.40
2018-04-23T12:49:34.038Z,28.40
2018-04-23T12:52:01.489Z,28.50
2018-04-23T12:54:28.944Z,28.50
2018-04-23T12:56:56.394Z,28.50
2018-04-23T12:59:23.847Z,28.60
2018-04-23T13:01:51.303Z,28.60
2018-04-23T13:04:18.755Z,28.70
2018-04-23T13:06:46.216Z,28.80
2018-04-23T13:09:13.668Z,28.60
2018-04-23T13:11:41.117Z,28.30
2018-04-23T13:14:08.560Z,28.20
2018-04-23T13:16:36.021Z,28.30
2018-04-23T13:19:03.472Z,28.30
2018-04-23T13:21:30.929Z,28.20
2018-04-23T13:23:58.446Z,28.20
2018-04-23T13:26:26.593Z,28.30
2018-04-23T13:28:54.029Z,28.20
2018-04-23T13:31:21.486Z,28.30
2018-04-23T13:33:48.937Z,28.20
2018-04-23T13:36:16.383Z,28.20
2018-04-23T13:38:44.607Z,28.40
2018-04-23T13:41:12.060Z,28.40
2018-04-23T13:43:39.512Z,28.60
2018-04-23T13:46:06.959Z,28.30
2018-04-23T13:48:34.411Z,28.20
2018-04-23T13:51:01.877Z,28.10
2018-04-23T13:53:29.328Z,28.10
2018-04-23T13:55:56.784Z,28.10
2018-04-23T13:58:24.235Z,28.00
2018-04-23T14:00:51.692Z,27.90
2018-04-23T14:03:19.141Z,27.90
2018-04-23T14:05:46.584Z,27.90
2018-04-23T14:08:14.044Z,27.70
2018-04-23T14:10:41.504Z,27.60
2018-04-23T14:13:08.949Z,27.60
2018-04-23T14:15:36.409Z,27.50
2018-04-23T14:18:03.859Z,27.60
2018-04-23T14:20:32.089Z,27.50
2018-04-23T14:22:59.543Z,27.50
2018-04-23T14:25:27.022Z,27.30
2018-04-23T14:27:55.167Z,27.20
2018-04-23T14:30:23.391Z,27.10
2018-04-23T14:32:51.604Z,27.10
2018-04-23T14:35:19.062Z,27.00
2018-04-23T14:37:46.555Z,27.00
2018-04-23T14:40:14.017Z,27.10
2018-04-23T14:42:41.470Z,27.00
2018-04-23T14:45:08.928Z,26.80
2018-04-23T14:47:36.383Z,26.50
2018-04-23T14:50:03.857Z,26.00
2018-04-23T14:52:31.314Z,25.60
2018-04-23T14:54:59.570Z,25.30
2018-04-23T14:57:27.012Z,25.20
2018-04-23T14:59:54.475Z,24.90
2018-04-23T15:02:21.927Z,24.70
2018-04-23T15:04:49.383Z,24.40
2018-04-23T15:07:16.836Z,24.40
2018-04-23T15:09:44.279Z,24.20
2018-04-23T15:12:11.736Z,24.00
2018-04-23T15:14:39.187Z,23.90
2018-04-23T15:17:06.650Z,23.90
2018-04-23T15:19:34.104Z,23.80
2018-04-23T15:22:01.568Z,23.80
2018-04-23T15:24:29.026Z,23.60
2018-04-23T15:26:56.479Z,23.50
2018-04-23T15:29:24.692Z,23.30
2018-04-23T15:31:52.145Z,23.20
2018-04-23T15:34:19.598Z,23.20
2018-04-23T15:36:47.050Z,23.30
2018-04-23T15:39:14.499Z,23.20
2018-04-23T15:41:41.944Z,23.30
2018-04-23T15:44:09.406Z,23.30
2018-04-23T15:46:36.859Z,23.20
2018-04-23T15:49:04.316Z,23.20
2018-04-23T15:51:31.773Z,23.20
2018-04-23T15:53:59.229Z,23.10
2018-04-23T15:56:26.685Z,23.10
2018-04-23T15:58:54.143Z,23.10
2018-04-23T16:01:21.591Z,23.10
2018-04-23T16:03:49.035Z,23.00
2018-04-23T16:06:16.487Z,22.90
2018-04-23T16:08:43.955Z,22.80
2018-04-23T16:11:11.388Z,22.80
2018-04-23T16:13:38.854Z,22.90
2018-04-23T16:16:06.333Z,22.80
2018-04-23T16:18:33.776Z,22.80
2018-04-23T16:21:01.226Z,22.80
2018-04-23T16:23:28.692Z,22.80
2018-04-23T16:25:56.165Z,22.80
2018-04-23T16:28:23.759Z,22.80
2018-04-23T16:30:51.216Z,22.80
2018-04-23T16:33:19.434Z,22.60
2018-04-23T16:35:46.885Z,22.50
2018-04-23T16:38:14.352Z,22.50
2018-04-23T16:40:41.806Z,22.40
2018-04-23T16:43:09.271Z,22.40
2018-04-23T16:45:36.737Z,22.20
2018-04-23T16:48:04.199Z,22.20
2018-04-23T16:50:31.652Z,22.30
2018-04-23T16:52:59.112Z,22.10
2018-04-23T16:55:26.568Z,22.20
2018-04-23T16:57:54.030Z,22.20
2018-04-23T17:00:21.482Z,22.30
2018-04-23T17:02:48.973Z,22.30
2018-04-23T17:05:16.394Z,22.40
2018-04-23T17:07:43.865Z,22.50
2018-04-23T17:10:11.304Z,22.50
2018-04-23T17:12:38.766Z,22.40
2018-04-23T17:15:06.224Z,22.50
2018-04-23T17:17:33.692Z,22.40
2018-04-23T17:20:01.149Z,22.30
2018-04-23T17:22:28.600Z,22.40
2018-04-23T17:24:56.043Z,22.40
2018-04-23T17:27:24.267Z,22.50
2018-04-23T17:29:51.728Z,22.40
2018-04-23T17:32:19.312Z,22.40
2018-04-23T17:34:46.772Z,22.30
2018-04-23T17:37:14.244Z,22.30
2018-04-23T17:39:42.456Z,22.20
2018-04-23T17:42:10.681Z,22.20
2018-04-23T17:44:38.154Z,22.10
2018-04-23T17:47:05.610Z,22.10
2018-04-23T17:49:33.083Z,22.00
2018-04-23T17:52:00.531Z,21.90
2018-04-23T17:54:28.379Z,21.80
2018-04-23T17:56:55.826Z,21.80
2018-04-23T17:59:23.280Z,21.80
2018-04-23T18:01:50.728Z,21.60
2018-04-23T18:04:18.193Z,21.50
2018-04-23T18:06:45.624Z,21.40
2018-04-23T18:09:13.075Z,21.40
2018-04-23T18:11:40.527Z,21.50
2018-04-23T18:14:08.748Z,21.40
2018-04-23T18:16:36.196Z,21.40
2018-04-23T18:19:03.672Z,21.40
2018-04-23T18:21:31.130Z,21.30
2018-04-23T18:23:58.589Z,21.20
2018-04-23T18:26:26.045Z,21.10
2018-04-23T18:28:53.500Z,21.00
2018-04-23T18:31:20.962Z,21.00
2018-04-23T18:33:48.423Z,20.90
2018-04-23T18:36:15.871Z,20.80
2018-04-23T18:38:43.385Z,20.80
2018-04-23T18:41:11.570Z,20.90
2018-04-23T18:43:39.024Z,20.80
2018-04-23T18:46:06.471Z,20.80
2018-04-23T18:48:33.918Z,20.70
2018-04-23T18:51:01.383Z,20.80
2018-04-23T18:53:28.831Z,20.70
2018-04-23T18:55:56.294Z,20.60
2018-04-23T18:58:23.749Z,20.60
2018-04-23T19:00:51.203Z,20.50
2018-04-23T19:03:18.646Z,20.40
2018-04-23T19:05:46.941Z,20.40
2018-04-23T19:08:14.321Z,20.30
2018-04-23T19:10:41.772Z,20.40
2018-04-23T19:13:09.223Z,20.40
2018-04-23T19:15:36.675Z,20.40
2018-04-23T19:18:04.126Z,20.50
2018-04-23T19:20:31.599Z,20.50
2018-04-23T19:22:59.055Z,20.50
2018-04-23T19:25:26.520Z,20.50
2018-04-23T19:27:53.968Z,20.50
2018-04-23T19:30:21.433Z,20.40
2018-04-23T19:32:48.874Z,20.30
2018-04-23T19:35:16.356Z,20.10
2018-04-23T19:37:43.794Z,20.10
2018-04-23T19:40:11.251Z,19.90
2018-04-23T19:42:38.704Z,19.70
2018-04-23T19:45:06.169Z,19.60
2018-04-23T19:47:33.615Z,19.60
2018-04-23T19:50:01.082Z,19.50
2018-04-23T19:52:28.569Z,19.50
2018-04-23T19:54:56.030Z,19.50
2018-04-23T19:57:23.484Z,19.50
2018-04-23T19:59:50.957Z,19.50
2018-04-23T20:02:19.295Z,19.50
2018-04-23T20:04:46.739Z,19.40
2018-04-23T20:07:14.210Z,19.50
2018-04-23T20:09:41.654Z,19.40
2018-04-23T20:12:09.099Z,19.20
2018-04-23T20:14:36.561Z,19.30
2018-04-23T20:17:04.000Z,19.20
2018-04-23T20:19:31.468Z,18.80
2018-04-23T20:21:58.932Z,18.60
2018-04-23T20:24:26.387Z,18.30
2018-04-23T20:26:53.842Z,18.00
2018-04-23T20:29:21.302Z,17.80
2018-04-23T20:31:48.751Z,17.70
2018-04-23T20:34:16.201Z,17.80
2018-04-23T20:36:43.658Z,17.70
2018-04-23T20:39:11.120Z,17.60
2018-04-23T20:41:38.688Z,17.70
2018-04-23T20:44:06.161Z,17.70
2018-04-23T20:46:33.608Z,17.70
2018-04-23T20:49:01.062Z,17.70
2018-04-23T20:51:28.515Z,17.60
2018-04-23T20:53:55.968Z,17.60
2018-04-23T20:56:23.413Z,17.60
2018-04-23T20:58:50.867Z,17.60
2018-04-23T21:01:18.324Z,17.50
2018-04-23T21:03:45.780Z,17.60
2018-04-23T21:06:13.237Z,17.50
2018-04-23T21:08:40.693Z,17.50
2018-04-23T21:11:08.225Z,17.50
2018-04-23T21:13:35.604Z,17.40
2018-04-23T21:16:03.046Z,17.40
2018-04-23T21:18:31.263Z,17.50
2018-04-23T21:20:58.723Z,17.50
2018-04-23T21:23:26.174Z,17.40
2018-04-23T21:25:53.711Z,17.50
2018-04-23T21:28:21.071Z,17.60
2018-04-23T21:30:48.538Z,17.60
2018-04-23T21:33:15.991Z,17.50
2018-04-23T21:35:43.455Z,17.50
2018-04-23T21:38:10.909Z,17.50
2018-04-23T21:40:38.373Z,17.40
2018-04-23T21:43:05.814Z,17.20
2018-04-23T21:45:33.352Z,17.30
2018-04-23T21:48:00.812Z,17.30
2018-04-23T21:50:28.267Z,17.20
2018-04-23T21:52:55.725Z,17.30
2018-04-23T21:55:23.176Z,17.20
2018-04-23T21:57:50.618Z,17.10
2018-04-23T22:00:18.847Z,17.10
2018-04-23T22:02:46.307Z,17.00
2018-04-23T22:05:13.764Z,17.10
2018-04-23T22:07:41.239Z,17.10
2018-04-23T22:10:08.697Z,17.00
2018-04-23T22:12:36.148Z,16.90
2018-04-23T22:15:03.605Z,16.80
2018-04-23T22:17:31.052Z,16.90
2018-04-23T22:19:58.521Z,17.00
2018-04-23T22:22:25.990Z,16.90
2018-04-23T22:24:53.445Z,16.90
2018-04-23T22:27:20.890Z,16.90
2018-04-23T22:29:48.349Z,16.80
2018-04-23T22:32:15.897Z,16.80
2018-04-23T22:34:43.263Z,16.80
2018-04-23T22:37:10.715Z,16.70
2018-04-23T22:39:38.169Z,16.70
2018-04-23T22:42:05.682Z,16.70
2018-04-23T22:44:33.132Z,16.70
2018-04-23T22:47:00.575Z,16.70
2018-04-23T22:49:28.794Z,16.70
2018-04-23T22:51:56.234Z,16.60
2018-04-23T22:54:23.688Z,16.60
2018-04-23T22:56:51.135Z,16.60
2018-04-23T22:59:18.581Z,16.40
2018-04-23T23:01:46.042Z,16.40
2018-04-23T23:04:13.489Z,16.40
2018-04-23T23:06:41.716Z,16.40
2018-04-23T23:09:09.164Z,16.30
2018-04-23T23:11:36.624Z,16.40
2018-04-23T23:14:04.083Z,16.50
2018-04-23T23:16:31.535Z,16.50
2018-04-23T23:18:59.012Z,16.60
2018-04-23T23:21:26.446Z,16.60
2018-04-23T23:23:53.903Z,16.50
2018-04-23T23:26:21.355Z,16.40
2018-04-23T23:28:48.816Z,16.40
2018-04-23T23:31:16.324Z,16.40
2018-04-23T23:33:43.773Z,16.40
2018-04-23T23:36:12.000Z,16.20
2018-04-23T23:38:39.448Z,16.10
2018-04-23T23:41:06.907Z,16.20
2018-04-23T23:43:34.361Z,16.20
2018-04-23T23:46:01.829Z,16.20
2018-04-23T23:48:29.275Z,16.20
2018-04-23T23:50:56.724Z,16.20
2018-04-23T23:53:24.163Z,16.20
2018-04-23T23:55:51.623Z,16.20
2018-04-23T23:58:19.078Z,16.10
